sensor_id;sensor_type;location;lat;lon;timestamp;temperature;humidity
23147;DHT22;11742;53.532;-1.478;2023-07-20T00:00:07;20.70;82.00
23147;DHT22;11742;53.532;-1.478;2023-07-20T00:02:51;20.70;82.00
23147;DHT22;11742;53.532;-1.478;2023-07-20T00:05:36;20.60;82.00
23147;DHT22;11742;53.532;-1.478;2023-07-20T00:08:23;20.60;82.10
23147;DHT22;11742;53.532;-1.478;2023-07-20T00:11:07;20.60;82.10
23147;DHT22;11742;53.532;-1.478;2023-07-20T00:13:52;20.60;82.20
23147;DHT22;11742;53.532;-1.478;2023-07-20T00:16:36;20.60;82.20
23147;DHT22;11742;53.532;-1.478;2023-07-20T00:19:21;20.50;82.10
23147;DHT22;11742;53.532;-1.478;2023-07-20T00:22:05;20.50;82.20
23147;DHT22;11742;53.532;-1.478;2023-07-20T00:24:49;20.40;82.10
23147;DHT22;11742;53.532;-1.478;2023-07-20T00:27:34;20.40;82.10
23147;DHT22;11742;53.532;-1.478;2023-07-20T00:30:18;20.30;82.00
23147;DHT22;11742;53.532;-1.478;2023-07-20T00:33:02;20.30;82.00
23147;DHT22;11742;53.532;-1.478;2023-07-20T00:35:47;20.30;82.10
23147;DHT22;11742;53.532;-1.478;2023-07-20T00:38:31;20.30;82.10
23147;DHT22;11742;53.532;-1.478;2023-07-20T00:41:15;20.20;82.20
23147;DHT22;11742;53.532;-1.478;2023-07-20T00:43:59;20.20;82.20
23147;DHT22;11742;53.532;-1.478;2023-07-20T00:46:43;20.20;82.20
23147;DHT22;11742;53.532;-1.478;2023-07-20T00:49:28;20.20;82.20
23147;DHT22;11742;53.532;-1.478;2023-07-20T00:52:13;20.10;82.20
23147;DHT22;11742;53.532;-1.478;2023-07-20T00:54:58;20.10;82.20
23147;DHT22;11742;53.532;-1.478;2023-07-20T00:57:43;20.00;82.20
23147;DHT22;11742;53.532;-1.478;2023-07-20T01:00:28;20.00;82.20
23147;DHT22;11742;53.532;-1.478;2023-07-20T01:03:12;20.00;82.30
23147;DHT22;11742;53.532;-1.478;2023-07-20T01:06:14;19.90;82.30
23147;DHT22;11742;53.532;-1.478;2023-07-20T01:09:15;19.90;82.40
23147;DHT22;11742;53.532;-1.478;2023-07-20T01:12:18;19.90;82.50
23147;DHT22;11742;53.532;-1.478;2023-07-20T01:15:07;19.90;82.60
23147;DHT22;11742;53.532;-1.478;2023-07-20T01:17:52;19.80;82.50
23147;DHT22;11742;53.532;-1.478;2023-07-20T01:20:36;19.80;82.60
23147;DHT22;11742;53.532;-1.478;2023-07-20T01:32:27;19.70;82.70
23147;DHT22;11742;53.532;-1.478;2023-07-20T01:35:14;19.60;82.60
23147;DHT22;11742;53.532;-1.478;2023-07-20T01:38:00;19.60;82.70
23147;DHT22;11742;53.532;-1.478;2023-07-20T01:40:45;19.60;82.70
23147;DHT22;11742;53.532;-1.478;2023-07-20T01:43:29;19.60;82.70
23147;DHT22;11742;53.532;-1.478;2023-07-20T01:46:13;19.50;82.80
23147;DHT22;11742;53.532;-1.478;2023-07-20T01:48:58;19.50;82.80
23147;DHT22;11742;53.532;-1.478;2023-07-20T01:51:42;19.40;82.70
23147;DHT22;11742;53.532;-1.478;2023-07-20T01:54:26;19.40;82.70
23147;DHT22;11742;53.532;-1.478;2023-07-20T01:57:11;19.40;82.80
23147;DHT22;11742;53.532;-1.478;2023-07-20T01:59:55;19.40;82.90
23147;DHT22;11742;53.532;-1.478;2023-07-20T02:02:39;19.30;83.70
23147;DHT22;11742;53.532;-1.478;2023-07-20T02:05:25;19.30;83.00
23147;DHT22;11742;53.532;-1.478;2023-07-20T02:08:10;19.30;83.00
23147;DHT22;11742;53.532;-1.478;2023-07-20T02:10:54;19.20;83.00
23147;DHT22;11742;53.532;-1.478;2023-07-20T02:13:39;19.20;83.90
23147;DHT22;11742;53.532;-1.478;2023-07-20T02:16:23;19.20;83.10
23147;DHT22;11742;53.532;-1.478;2023-07-20T02:19:07;19.20;83.10
23147;DHT22;11742;53.532;-1.478;2023-07-20T02:21:52;19.20;83.20
23147;DHT22;11742;53.532;-1.478;2023-07-20T02:24:37;19.10;83.20
23147;DHT22;11742;53.532;-1.478;2023-07-20T02:27:21;19.10;83.20
23147;DHT22;11742;53.532;-1.478;2023-07-20T02:30:06;19.10;83.30
23147;DHT22;11742;53.532;-1.478;2023-07-20T02:32:51;19.10;83.30
23147;DHT22;11742;53.532;-1.478;2023-07-20T02:35:35;19.00;83.30
23147;DHT22;11742;53.532;-1.478;2023-07-20T02:38:19;19.00;83.40
23147;DHT22;11742;53.532;-1.478;2023-07-20T02:41:03;19.00;83.40
23147;DHT22;11742;53.532;-1.478;2023-07-20T02:43:47;19.00;83.50
23147;DHT22;11742;53.532;-1.478;2023-07-20T02:46:31;18.90;83.50
23147;DHT22;11742;53.532;-1.478;2023-07-20T02:49:16;18.90;83.50
23147;DHT22;11742;53.532;-1.478;2023-07-20T02:52:00;18.90;83.60
23147;DHT22;11742;53.532;-1.478;2023-07-20T02:54:45;18.90;83.60
23147;DHT22;11742;53.532;-1.478;2023-07-20T02:57:29;18.80;83.60
23147;DHT22;11742;53.532;-1.478;2023-07-20T03:00:14;18.80;83.70
23147;DHT22;11742;53.532;-1.478;2023-07-20T03:02:59;18.80;83.70
23147;DHT22;11742;53.532;-1.478;2023-07-20T03:05:44;18.80;83.80
23147;DHT22;11742;53.532;-1.478;2023-07-20T03:08:28;18.80;83.80
23147;DHT22;11742;53.532;-1.478;2023-07-20T03:11:12;18.80;83.90
23147;DHT22;11742;53.532;-1.478;2023-07-20T03:13:56;18.70;83.90
23147;DHT22;11742;53.532;-1.478;2023-07-20T03:16:40;18.70;83.90
23147;DHT22;11742;53.532;-1.478;2023-07-20T03:19:24;18.70;84.00
23147;DHT22;11742;53.532;-1.478;2023-07-20T03:22:09;18.60;84.00
23147;DHT22;11742;53.532;-1.478;2023-07-20T03:24:53;18.70;84.10
23147;DHT22;11742;53.532;-1.478;2023-07-20T03:27:37;18.60;84.10
23147;DHT22;11742;53.532;-1.478;2023-07-20T03:30:21;18.60;84.20
23147;DHT22;11742;53.532;-1.478;2023-07-20T03:33:07;18.60;84.20
23147;DHT22;11742;53.532;-1.478;2023-07-20T03:35:51;18.60;84.30
23147;DHT22;11742;53.532;-1.478;2023-07-20T03:38:36;18.60;84.40
23147;DHT22;11742;53.532;-1.478;2023-07-20T03:41:20;18.60;84.50
23147;DHT22;11742;53.532;-1.478;2023-07-20T03:44:05;18.60;84.50
23147;DHT22;11742;53.532;-1.478;2023-07-20T03:46:50;18.50;84.50
23147;DHT22;11742;53.532;-1.478;2023-07-20T03:49:34;18.50;84.60
23147;DHT22;11742;53.532;-1.478;2023-07-20T03:52:18;18.50;84.60
23147;DHT22;11742;53.532;-1.478;2023-07-20T03:55:02;18.50;84.60
23147;DHT22;11742;53.532;-1.478;2023-07-20T03:57:47;18.50;85.60
23147;DHT22;11742;53.532;-1.478;2023-07-20T04:00:31;18.50;84.70
23147;DHT22;11742;53.532;-1.478;2023-07-20T04:03:16;18.50;84.70
23147;DHT22;11742;53.532;-1.478;2023-07-20T04:06:00;18.50;84.80
23147;DHT22;11742;53.532;-1.478;2023-07-20T04:08:44;18.50;84.80
23147;DHT22;11742;53.532;-1.478;2023-07-20T04:11:31;18.40;84.80
23147;DHT22;11742;53.532;-1.478;2023-07-20T04:14:15;18.40;84.90
23147;DHT22;11742;53.532;-1.478;2023-07-20T04:17:00;18.40;85.00
23147;DHT22;11742;53.532;-1.478;2023-07-20T04:19:44;18.40;85.00
23147;DHT22;11742;53.532;-1.478;2023-07-20T04:22:29;18.40;85.00
23147;DHT22;11742;53.532;-1.478;2023-07-20T04:25:13;18.40;85.20
23147;DHT22;11742;53.532;-1.478;2023-07-20T04:27:57;18.40;85.20
23147;DHT22;11742;53.532;-1.478;2023-07-20T04:30:42;18.40;85.20
23147;DHT22;11742;53.532;-1.478;2023-07-20T04:33:27;18.40;85.30
23147;DHT22;11742;53.532;-1.478;2023-07-20T04:36:13;18.30;85.20
23147;DHT22;11742;53.532;-1.478;2023-07-20T04:39:00;18.40;85.40
23147;DHT22;11742;53.532;-1.478;2023-07-20T04:41:44;18.30;85.40
23147;DHT22;11742;53.532;-1.478;2023-07-20T04:44:29;18.30;85.30
23147;DHT22;11742;53.532;-1.478;2023-07-20T04:47:13;18.30;85.40
23147;DHT22;11742;53.532;-1.478;2023-07-20T04:49:57;18.30;85.50
23147;DHT22;11742;53.532;-1.478;2023-07-20T04:52:41;18.30;85.50
23147;DHT22;11742;53.532;-1.478;2023-07-20T04:55:25;18.30;85.60
23147;DHT22;11742;53.532;-1.478;2023-07-20T04:58:09;18.30;85.60
23147;DHT22;11742;53.532;-1.478;2023-07-20T05:00:53;18.30;85.70
23147;DHT22;11742;53.532;-1.478;2023-07-20T05:03:37;18.20;85.70
23147;DHT22;11742;53.532;-1.478;2023-07-20T05:06:21;18.30;85.90
23147;DHT22;11742;53.532;-1.478;2023-07-20T05:09:06;18.30;85.90
23147;DHT22;11742;53.532;-1.478;2023-07-20T05:11:50;18.30;86.00
23147;DHT22;11742;53.532;-1.478;2023-07-20T05:14:35;18.20;85.90
23147;DHT22;11742;53.532;-1.478;2023-07-20T05:17:19;18.20;86.00
23147;DHT22;11742;53.532;-1.478;2023-07-20T05:20:04;18.20;86.10
23147;DHT22;11742;53.532;-1.478;2023-07-20T05:22:48;18.20;86.30
23147;DHT22;11742;53.532;-1.478;2023-07-20T05:25:33;18.20;86.30
23147;DHT22;11742;53.532;-1.478;2023-07-20T05:28:17;18.20;86.30
23147;DHT22;11742;53.532;-1.478;2023-07-20T05:31:04;18.20;86.30
23147;DHT22;11742;53.532;-1.478;2023-07-20T05:33:49;18.20;86.40
23147;DHT22;11742;53.532;-1.478;2023-07-20T05:36:33;18.20;86.60
23147;DHT22;11742;53.532;-1.478;2023-07-20T05:39:18;18.20;86.70
23147;DHT22;11742;53.532;-1.478;2023-07-20T05:42:02;18.20;86.70
23147;DHT22;11742;53.532;-1.478;2023-07-20T05:44:47;18.20;86.80
23147;DHT22;11742;53.532;-1.478;2023-07-20T05:47:32;18.20;86.90
23147;DHT22;11742;53.532;-1.478;2023-07-20T05:50:17;18.20;86.90
23147;DHT22;11742;53.532;-1.478;2023-07-20T05:53:01;18.20;87.00
23147;DHT22;11742;53.532;-1.478;2023-07-20T05:55:52;18.20;86.90
23147;DHT22;11742;53.532;-1.478;2023-07-20T05:58:37;18.20;87.00
23147;DHT22;11742;53.532;-1.478;2023-07-20T06:01:21;18.20;87.10
23147;DHT22;11742;53.532;-1.478;2023-07-20T06:04:06;18.20;87.00
23147;DHT22;11742;53.532;-1.478;2023-07-20T06:06:50;18.20;87.00
23147;DHT22;11742;53.532;-1.478;2023-07-20T06:09:35;18.30;87.00
23147;DHT22;11742;53.532;-1.478;2023-07-20T06:12:19;18.20;86.90
23147;DHT22;11742;53.532;-1.478;2023-07-20T06:15:05;18.30;87.00
23147;DHT22;11742;53.532;-1.478;2023-07-20T06:17:50;18.20;87.00
23147;DHT22;11742;53.532;-1.478;2023-07-20T06:20:34;18.30;87.10
23147;DHT22;11742;53.532;-1.478;2023-07-20T06:23:21;18.20;87.10
23147;DHT22;11742;53.532;-1.478;2023-07-20T06:26:06;18.30;87.20
23147;DHT22;11742;53.532;-1.478;2023-07-20T06:28:51;18.30;87.30
23147;DHT22;11742;53.532;-1.478;2023-07-20T06:31:36;18.30;87.40
23147;DHT22;11742;53.532;-1.478;2023-07-20T06:34:20;18.30;87.40
23147;DHT22;11742;53.532;-1.478;2023-07-20T06:37:04;18.30;87.40
23147;DHT22;11742;53.532;-1.478;2023-07-20T06:39:49;18.30;87.40
23147;DHT22;11742;53.532;-1.478;2023-07-20T06:42:34;18.30;87.60
23147;DHT22;11742;53.532;-1.478;2023-07-20T06:45:18;18.30;87.60
23147;DHT22;11742;53.532;-1.478;2023-07-20T06:48:02;18.30;87.70
23147;DHT22;11742;53.532;-1.478;2023-07-20T06:50:47;18.30;87.70
23147;DHT22;11742;53.532;-1.478;2023-07-20T06:53:32;18.30;87.80
23147;DHT22;11742;53.532;-1.478;2023-07-20T06:56:17;18.30;87.80
23147;DHT22;11742;53.532;-1.478;2023-07-20T06:59:01;18.30;87.90
23147;DHT22;11742;53.532;-1.478;2023-07-20T07:01:47;18.30;88.00
23147;DHT22;11742;53.532;-1.478;2023-07-20T07:04:31;18.30;88.10
23147;DHT22;11742;53.532;-1.478;2023-07-20T07:07:16;18.30;88.10
23147;DHT22;11742;53.532;-1.478;2023-07-20T07:10:01;18.40;88.20
23147;DHT22;11742;53.532;-1.478;2023-07-20T07:12:49;18.40;88.30
23147;DHT22;11742;53.532;-1.478;2023-07-20T07:15:33;18.40;88.40
23147;DHT22;11742;53.532;-1.478;2023-07-20T07:18:17;18.40;88.30
23147;DHT22;11742;53.532;-1.478;2023-07-20T07:21:04;18.40;88.30
23147;DHT22;11742;53.532;-1.478;2023-07-20T07:23:48;18.40;88.40
23147;DHT22;11742;53.532;-1.478;2023-07-20T07:26:33;18.50;88.60
23147;DHT22;11742;53.532;-1.478;2023-07-20T07:29:17;18.40;88.60
23147;DHT22;11742;53.532;-1.478;2023-07-20T07:32:02;18.50;88.80
23147;DHT22;11742;53.532;-1.478;2023-07-20T07:34:47;18.50;88.80
23147;DHT22;11742;53.532;-1.478;2023-07-20T07:37:31;18.50;88.90
23147;DHT22;11742;53.532;-1.478;2023-07-20T07:40:15;18.50;89.00
23147;DHT22;11742;53.532;-1.478;2023-07-20T07:43:00;18.50;89.10
23147;DHT22;11742;53.532;-1.478;2023-07-20T07:45:44;18.50;89.10
23147;DHT22;11742;53.532;-1.478;2023-07-20T07:48:29;18.60;89.30
23147;DHT22;11742;53.532;-1.478;2023-07-20T07:51:13;18.60;89.30
23147;DHT22;11742;53.532;-1.478;2023-07-20T07:53:59;18.60;89.50
23147;DHT22;11742;53.532;-1.478;2023-07-20T07:56:43;18.60;89.50
23147;DHT22;11742;53.532;-1.478;2023-07-20T07:59:28;18.60;89.50
23147;DHT22;11742;53.532;-1.478;2023-07-20T08:02:14;18.70;89.60
23147;DHT22;11742;53.532;-1.478;2023-07-20T08:04:58;18.70;89.60
23147;DHT22;11742;53.532;-1.478;2023-07-20T08:07:42;18.70;89.50
23147;DHT22;11742;53.532;-1.478;2023-07-20T08:10:26;18.80;89.60
23147;DHT22;11742;53.532;-1.478;2023-07-20T08:13:11;18.70;89.50
23147;DHT22;11742;53.532;-1.478;2023-07-20T08:15:56;18.80;89.70
23147;DHT22;11742;53.532;-1.478;2023-07-20T08:18:40;18.80;89.70
23147;DHT22;11742;53.532;-1.478;2023-07-20T08:21:24;18.80;89.50
23147;DHT22;11742;53.532;-1.478;2023-07-20T08:24:08;18.80;89.50
23147;DHT22;11742;53.532;-1.478;2023-07-20T08:26:53;18.90;89.50
23147;DHT22;11742;53.532;-1.478;2023-07-20T08:29:37;18.90;89.40
23147;DHT22;11742;53.532;-1.478;2023-07-20T08:32:22;18.90;89.40
23147;DHT22;11742;53.532;-1.478;2023-07-20T08:35:06;19.00;89.50
23147;DHT22;11742;53.532;-1.478;2023-07-20T08:37:51;19.00;89.40
23147;DHT22;11742;53.532;-1.478;2023-07-20T08:40:44;19.00;89.50
23147;DHT22;11742;53.532;-1.478;2023-07-20T08:43:30;19.10;89.60
23147;DHT22;11742;53.532;-1.478;2023-07-20T08:46:16;19.10;89.40
23147;DHT22;11742;53.532;-1.478;2023-07-20T08:49:01;19.10;89.40
23147;DHT22;11742;53.532;-1.478;2023-07-20T08:51:48;19.10;89.60
23147;DHT22;11742;53.532;-1.478;2023-07-20T08:54:33;19.20;89.60
23147;DHT22;11742;53.532;-1.478;2023-07-20T08:57:18;19.20;89.80
23147;DHT22;11742;53.532;-1.478;2023-07-20T09:00:06;19.20;89.70
23147;DHT22;11742;53.532;-1.478;2023-07-20T09:02:57;19.30;89.70
23147;DHT22;11742;53.532;-1.478;2023-07-20T09:05:45;19.30;89.90
23147;DHT22;11742;53.532;-1.478;2023-07-20T09:08:30;19.30;90.00
23147;DHT22;11742;53.532;-1.478;2023-07-20T09:11:14;19.30;90.10
23147;DHT22;11742;53.532;-1.478;2023-07-20T09:14:06;19.40;90.10
23147;DHT22;11742;53.532;-1.478;2023-07-20T09:16:55;19.50;90.20
23147;DHT22;11742;53.532;-1.478;2023-07-20T09:19:46;19.50;90.30
23147;DHT22;11742;53.532;-1.478;2023-07-20T09:22:31;19.60;90.50
23147;DHT22;11742;53.532;-1.478;2023-07-20T09:25:18;19.60;90.50
23147;DHT22;11742;53.532;-1.478;2023-07-20T09:28:06;19.60;90.40
23147;DHT22;11742;53.532;-1.478;2023-07-20T09:30:50;19.60;90.60
23147;DHT22;11742;53.532;-1.478;2023-07-20T09:33:39;19.70;90.60
23147;DHT22;11742;53.532;-1.478;2023-07-20T09:36:23;19.80;90.50
23147;DHT22;11742;53.532;-1.478;2023-07-20T09:39:07;19.80;90.50
23147;DHT22;11742;53.532;-1.478;2023-07-20T09:41:52;19.80;90.30
23147;DHT22;11742;53.532;-1.478;2023-07-20T09:44:36;19.90;90.50
23147;DHT22;11742;53.532;-1.478;2023-07-20T09:47:24;19.90;90.40
23147;DHT22;11742;53.532;-1.478;2023-07-20T09:50:09;20.00;90.20
23147;DHT22;11742;53.532;-1.478;2023-07-20T09:52:56;20.00;90.10
23147;DHT22;11742;53.532;-1.478;2023-07-20T09:55:43;20.10;90.00
23147;DHT22;11742;53.532;-1.478;2023-07-20T09:58:27;20.10;90.00
23147;DHT22;11742;53.532;-1.478;2023-07-20T10:01:13;20.20;89.90
23147;DHT22;11742;53.532;-1.478;2023-07-20T10:04:03;20.30;89.80
23147;DHT22;11742;53.532;-1.478;2023-07-20T10:06:49;20.40;89.80
23147;DHT22;11742;53.532;-1.478;2023-07-20T10:09:39;20.40;89.70
23147;DHT22;11742;53.532;-1.478;2023-07-20T10:12:25;20.50;89.80
23147;DHT22;11742;53.532;-1.478;2023-07-20T10:18:02;20.60;89.80
23147;DHT22;11742;53.532;-1.478;2023-07-20T10:20:47;20.70;89.90
23147;DHT22;11742;53.532;-1.478;2023-07-20T10:23:33;20.80;89.90
23147;DHT22;11742;53.532;-1.478;2023-07-20T10:26:18;20.80;89.80
23147;DHT22;11742;53.532;-1.478;2023-07-20T10:29:02;20.90;89.80
23147;DHT22;11742;53.532;-1.478;2023-07-20T10:31:49;21.00;89.80
23147;DHT22;11742;53.532;-1.478;2023-07-20T10:34:34;21.00;89.70
23147;DHT22;11742;53.532;-1.478;2023-07-20T10:40:39;21.10;89.90
23147;DHT22;11742;53.532;-1.478;2023-07-20T10:43:23;21.20;89.80
23147;DHT22;11742;53.532;-1.478;2023-07-20T10:46:07;21.20;90.20
23147;DHT22;11742;53.532;-1.478;2023-07-20T10:49:02;21.30;89.40
23147;DHT22;11742;53.532;-1.478;2023-07-20T10:51:48;21.30;89.10
23147;DHT22;11742;53.532;-1.478;2023-07-20T10:54:49;21.40;89.00
23147;DHT22;11742;53.532;-1.478;2023-07-20T10:57:33;21.40;88.70
23147;DHT22;11742;53.532;-1.478;2023-07-20T11:00:19;21.40;88.30
23147;DHT22;11742;53.532;-1.478;2023-07-20T11:03:06;21.50;88.40
23147;DHT22;11742;53.532;-1.478;2023-07-20T11:05:51;21.50;88.70
23147;DHT22;11742;53.532;-1.478;2023-07-20T11:08:40;21.60;89.00
23147;DHT22;11742;53.532;-1.478;2023-07-20T11:11:30;21.60;88.80
23147;DHT22;11742;53.532;-1.478;2023-07-20T11:14:22;21.60;88.30
23147;DHT22;11742;53.532;-1.478;2023-07-20T11:17:14;21.70;87.90
23147;DHT22;11742;53.532;-1.478;2023-07-20T11:20:00;21.70;87.70
23147;DHT22;11742;53.532;-1.478;2023-07-20T11:22:46;21.80;87.90
23147;DHT22;11742;53.532;-1.478;2023-07-20T11:25:40;21.80;88.90
23147;DHT22;11742;53.532;-1.478;2023-07-20T11:28:24;21.90;88.80
23147;DHT22;11742;53.532;-1.478;2023-07-20T11:31:08;21.90;88.90
23147;DHT22;11742;53.532;-1.478;2023-07-20T11:33:53;21.90;88.60
23147;DHT22;11742;53.532;-1.478;2023-07-20T11:36:39;22.00;88.30
23147;DHT22;11742;53.532;-1.478;2023-07-20T11:39:25;22.10;87.90
23147;DHT22;11742;53.532;-1.478;2023-07-20T11:42:10;22.10;87.40
23147;DHT22;11742;53.532;-1.478;2023-07-20T11:44:56;22.20;88.20
23147;DHT22;11742;53.532;-1.478;2023-07-20T11:47:44;22.20;88.60
23147;DHT22;11742;53.532;-1.478;2023-07-20T11:50:28;22.30;88.90
23147;DHT22;11742;53.532;-1.478;2023-07-20T11:53:14;22.30;88.90
23147;DHT22;11742;53.532;-1.478;2023-07-20T11:55:59;22.40;89.00
23147;DHT22;11742;53.532;-1.478;2023-07-20T11:58:45;22.50;89.00
23147;DHT22;11742;53.532;-1.478;2023-07-20T12:01:30;22.50;89.00
23147;DHT22;11742;53.532;-1.478;2023-07-20T12:04:21;22.60;88.60
23147;DHT22;11742;53.532;-1.478;2023-07-20T12:07:07;22.60;87.70
23147;DHT22;11742;53.532;-1.478;2023-07-20T12:10:09;22.70;88.00
23147;DHT22;11742;53.532;-1.478;2023-07-20T12:12:54;22.80;88.40
23147;DHT22;11742;53.532;-1.478;2023-07-20T12:15:38;22.80;87.60
23147;DHT22;11742;53.532;-1.478;2023-07-20T12:18:23;22.90;86.60
23147;DHT22;11742;53.532;-1.478;2023-07-20T12:21:19;22.90;86.00
23147;DHT22;11742;53.532;-1.478;2023-07-20T12:24:04;23.00;85.60
23147;DHT22;11742;53.532;-1.478;2023-07-20T12:26:48;23.00;85.70
23147;DHT22;11742;53.532;-1.478;2023-07-20T12:29:40;23.10;85.80
23147;DHT22;11742;53.532;-1.478;2023-07-20T12:32:24;23.10;86.00
23147;DHT22;11742;53.532;-1.478;2023-07-20T12:35:08;23.10;85.60
23147;DHT22;11742;53.532;-1.478;2023-07-20T12:37:52;23.10;85.00
23147;DHT22;11742;53.532;-1.478;2023-07-20T12:40:37;23.10;85.00
23147;DHT22;11742;53.532;-1.478;2023-07-20T12:43:21;23.20;85.30
23147;DHT22;11742;53.532;-1.478;2023-07-20T12:46:06;23.20;85.10
23147;DHT22;11742;53.532;-1.478;2023-07-20T12:48:51;23.20;84.80
23147;DHT22;11742;53.532;-1.478;2023-07-20T12:51:35;23.20;84.90
23147;DHT22;11742;53.532;-1.478;2023-07-20T12:54:19;23.30;84.50
23147;DHT22;11742;53.532;-1.478;2023-07-20T12:57:03;23.30;84.20
23147;DHT22;11742;53.532;-1.478;2023-07-20T12:59:48;23.30;84.70
23147;DHT22;11742;53.532;-1.478;2023-07-20T13:02:32;23.30;84.20
23147;DHT22;11742;53.532;-1.478;2023-07-20T13:05:17;23.30;83.60
23147;DHT22;11742;53.532;-1.478;2023-07-20T13:08:03;23.40;83.20
23147;DHT22;11742;53.532;-1.478;2023-07-20T13:10:47;23.40;83.50
23147;DHT22;11742;53.532;-1.478;2023-07-20T13:13:32;23.40;83.40
23147;DHT22;11742;53.532;-1.478;2023-07-20T13:16:16;23.50;83.20
23147;DHT22;11742;53.532;-1.478;2023-07-20T13:19:00;23.50;83.80
23147;DHT22;11742;53.532;-1.478;2023-07-20T13:21:44;23.50;84.00
23147;DHT22;11742;53.532;-1.478;2023-07-20T13:24:29;23.50;84.20
23147;DHT22;11742;53.532;-1.478;2023-07-20T13:27:13;23.60;83.90
23147;DHT22;11742;53.532;-1.478;2023-07-20T13:29:58;23.60;83.40
23147;DHT22;11742;53.532;-1.478;2023-07-20T13:32:43;23.60;82.40
23147;DHT22;11742;53.532;-1.478;2023-07-20T13:35:27;23.70;83.30
23147;DHT22;11742;53.532;-1.478;2023-07-20T13:38:12;23.70;82.40
23147;DHT22;11742;53.532;-1.478;2023-07-20T13:40:56;23.70;82.70
23147;DHT22;11742;53.532;-1.478;2023-07-20T13:43:41;23.70;83.10
23147;DHT22;11742;53.532;-1.478;2023-07-20T13:46:25;23.80;83.10
23147;DHT22;11742;53.532;-1.478;2023-07-20T13:49:10;23.80;83.00
23147;DHT22;11742;53.532;-1.478;2023-07-20T13:51:55;23.80;82.90
23147;DHT22;11742;53.532;-1.478;2023-07-20T13:54:41;23.80;82.90
23147;DHT22;11742;53.532;-1.478;2023-07-20T13:57:25;23.90;82.90
23147;DHT22;11742;53.532;-1.478;2023-07-20T14:00:10;23.90;82.80
23147;DHT22;11742;53.532;-1.478;2023-07-20T14:02:54;23.90;82.80
23147;DHT22;11742;53.532;-1.478;2023-07-20T14:05:38;24.00;82.40
23147;DHT22;11742;53.532;-1.478;2023-07-20T14:08:22;24.00;82.30
23147;DHT22;11742;53.532;-1.478;2023-07-20T14:11:07;24.00;82.40
23147;DHT22;11742;53.532;-1.478;2023-07-20T14:13:52;24.10;83.10
23147;DHT22;11742;53.532;-1.478;2023-07-20T14:16:39;24.10;82.10
23147;DHT22;11742;53.532;-1.478;2023-07-20T14:19:23;24.10;81.80
23147;DHT22;11742;53.532;-1.478;2023-07-20T14:22:08;24.20;81.90
23147;DHT22;11742;53.532;-1.478;2023-07-20T14:24:52;24.20;81.90
23147;DHT22;11742;53.532;-1.478;2023-07-20T14:27:37;24.20;81.70
23147;DHT22;11742;53.532;-1.478;2023-07-20T14:30:21;24.20;81.60
23147;DHT22;11742;53.532;-1.478;2023-07-20T14:33:05;24.20;81.40
23147;DHT22;11742;53.532;-1.478;2023-07-20T14:35:50;24.30;81.60
23147;DHT22;11742;53.532;-1.478;2023-07-20T14:38:35;24.30;81.50
23147;DHT22;11742;53.532;-1.478;2023-07-20T14:41:19;24.30;81.60
23147;DHT22;11742;53.532;-1.478;2023-07-20T14:44:04;24.40;81.70
23147;DHT22;11742;53.532;-1.478;2023-07-20T14:46:48;24.40;81.50
23147;DHT22;11742;53.532;-1.478;2023-07-20T14:49:33;24.40;81.40
23147;DHT22;11742;53.532;-1.478;2023-07-20T14:52:17;24.40;81.30
23147;DHT22;11742;53.532;-1.478;2023-07-20T14:55:01;24.40;80.80
23147;DHT22;11742;53.532;-1.478;2023-07-20T14:57:46;24.50;80.50
23147;DHT22;11742;53.532;-1.478;2023-07-20T15:00:32;24.50;80.40
23147;DHT22;11742;53.532;-1.478;2023-07-20T15:03:16;24.60;80.50
23147;DHT22;11742;53.532;-1.478;2023-07-20T15:06:01;24.60;80.40
23147;DHT22;11742;53.532;-1.478;2023-07-20T15:08:46;24.60;80.30
23147;DHT22;11742;53.532;-1.478;2023-07-20T15:11:30;24.60;80.50
23147;DHT22;11742;53.532;-1.478;2023-07-20T15:14:14;24.70;80.70
23147;DHT22;11742;53.532;-1.478;2023-07-20T15:16:59;24.80;80.10
23147;DHT22;11742;53.532;-1.478;2023-07-20T15:19:43;24.80;80.00
23147;DHT22;11742;53.532;-1.478;2023-07-20T15:22:27;24.80;79.80
23147;DHT22;11742;53.532;-1.478;2023-07-20T15:25:11;24.80;79.60
23147;DHT22;11742;53.532;-1.478;2023-07-20T15:27:56;24.80;79.40
23147;DHT22;11742;53.532;-1.478;2023-07-20T15:30:40;24.90;79.20
23147;DHT22;11742;53.532;-1.478;2023-07-20T15:33:24;24.90;79.10
23147;DHT22;11742;53.532;-1.478;2023-07-20T15:36:08;24.90;78.70
23147;DHT22;11742;53.532;-1.478;2023-07-20T15:38:53;25.00;78.70
23147;DHT22;11742;53.532;-1.478;2023-07-20T15:41:37;25.00;78.40
23147;DHT22;11742;53.532;-1.478;2023-07-20T15:44:21;25.00;78.10
23147;DHT22;11742;53.532;-1.478;2023-07-20T15:47:06;25.00;78.00
23147;DHT22;11742;53.532;-1.478;2023-07-20T15:49:51;24.90;77.90
23147;DHT22;11742;53.532;-1.478;2023-07-20T15:52:35;25.00;77.70
23147;DHT22;11742;53.532;-1.478;2023-07-20T15:55:19;25.00;77.60
23147;DHT22;11742;53.532;-1.478;2023-07-20T15:58:03;25.00;77.50
23147;DHT22;11742;53.532;-1.478;2023-07-20T16:00:53;25.00;77.70
23147;DHT22;11742;53.532;-1.478;2023-07-20T16:03:38;25.00;77.90
23147;DHT22;11742;53.532;-1.478;2023-07-20T16:06:23;25.00;77.90
23147;DHT22;11742;53.532;-1.478;2023-07-20T16:09:07;25.00;77.80
23147;DHT22;11742;53.532;-1.478;2023-07-20T16:11:52;25.00;77.80
23147;DHT22;11742;53.532;-1.478;2023-07-20T16:14:36;25.00;77.60
23147;DHT22;11742;53.532;-1.478;2023-07-20T16:17:21;25.00;77.30
23147;DHT22;11742;53.532;-1.478;2023-07-20T16:20:06;25.00;77.30
23147;DHT22;11742;53.532;-1.478;2023-07-20T16:22:51;25.00;77.30
23147;DHT22;11742;53.532;-1.478;2023-07-20T16:25:36;25.00;77.40
23147;DHT22;11742;53.532;-1.478;2023-07-20T16:28:20;25.10;77.30
23147;DHT22;11742;53.532;-1.478;2023-07-20T16:31:11;25.10;77.10
23147;DHT22;11742;53.532;-1.478;2023-07-20T16:33:56;25.00;76.70
23147;DHT22;11742;53.532;-1.478;2023-07-20T16:36:40;25.00;76.70
23147;DHT22;11742;53.532;-1.478;2023-07-20T16:39:25;25.10;76.50
23147;DHT22;11742;53.532;-1.478;2023-07-20T16:42:10;25.00;76.20
23147;DHT22;11742;53.532;-1.478;2023-07-20T16:44:56;25.10;76.20
23147;DHT22;11742;53.532;-1.478;2023-07-20T16:47:40;25.10;76.10
23147;DHT22;11742;53.532;-1.478;2023-07-20T16:50:24;25.00;75.90
23147;DHT22;11742;53.532;-1.478;2023-07-20T16:53:09;25.00;75.50
23147;DHT22;11742;53.532;-1.478;2023-07-20T16:55:54;25.00;76.40
23147;DHT22;11742;53.532;-1.478;2023-07-20T16:58:41;25.00;75.30
23147;DHT22;11742;53.532;-1.478;2023-07-20T17:01:26;25.00;75.20
23147;DHT22;11742;53.532;-1.478;2023-07-20T17:04:14;25.00;75.10
23147;DHT22;11742;53.532;-1.478;2023-07-20T17:06:58;25.00;75.20
23147;DHT22;11742;53.532;-1.478;2023-07-20T17:09:43;25.00;75.00
23147;DHT22;11742;53.532;-1.478;2023-07-20T17:12:27;25.00;75.00
23147;DHT22;11742;53.532;-1.478;2023-07-20T17:15:13;25.00;75.20
23147;DHT22;11742;53.532;-1.478;2023-07-20T17:17:59;24.90;75.00
23147;DHT22;11742;53.532;-1.478;2023-07-20T17:20:44;24.90;75.20